createdAt,value
2018-09-10T00:01:59.911Z,6.43
2018-09-10T00:04:28.043Z,4.83
2018-09-10T00:06:56.142Z,4.70
2018-09-10T00:09:24.207Z,4.63
2018-09-10T00:11:52.288Z,4.83
2018-09-10T00:14:20.331Z,4.27
2018-09-10T00:16:48.403Z,5.97
2018-09-10T00:19:16.437Z,4.37
2018-09-10T00:21:44.533Z,4.60
2018-09-10T00:24:12.619Z,3.63
2018-09-10T00:26:40.731Z,8.47
2018-09-10T00:29:08.824Z,5.60
2018-09-10T00:31:36.878Z,3.80
2018-09-10T00:34:04.968Z,4.93
2018-09-10T00:36:33.021Z,4.93
2018-09-10T00:39:01.071Z,4.70
2018-09-10T00:41:29.128Z,5.23
2018-09-10T00:43:57.216Z,4.37
2018-09-10T00:46:25.263Z,4.40
2018-09-10T00:48:53.368Z,4.20
2018-09-10T00:51:21.435Z,4.67
2018-09-10T00:53:49.496Z,3.70
2018-09-10T00:56:17.536Z,6.10
2018-09-10T00:58:46.516Z,3.97
2018-09-10T01:01:14.600Z,7.20
2018-09-10T01:03:42.695Z,5.10
2018-09-10T01:06:10.772Z,3.93
2018-09-10T01:08:38.823Z,4.17
2018-09-10T01:11:06.900Z,4.50
2018-09-10T01:13:34.947Z,4.00
2018-09-10T01:16:03.088Z,3.30
2018-09-10T01:18:31.165Z,3.50
2018-09-10T01:20:59.659Z,4.03
2018-09-10T01:23:27.721Z,3.93
2018-09-10T01:25:55.749Z,5.97
2018-09-10T01:28:23.810Z,3.27
2018-09-10T01:30:51.852Z,3.57
2018-09-10T01:33:25.414Z,7.23
2018-09-10T01:35:53.485Z,3.63
2018-09-10T01:38:21.543Z,4.87
2018-09-10T01:40:49.619Z,4.20
2018-09-10T01:43:17.667Z,3.70
2018-09-10T01:48:20.496Z,7.87
2018-09-10T01:50:48.692Z,3.83
2018-09-10T01:53:16.781Z,5.40
2018-09-10T01:55:44.825Z,3.30
2018-09-10T01:58:12.913Z,3.13
2018-09-10T02:00:40.966Z,3.50
2018-09-10T02:03:09.242Z,3.47
2018-09-10T02:05:37.272Z,3.97
2018-09-10T02:08:05.353Z,4.70
2018-09-10T02:10:33.424Z,3.20
2018-09-10T02:13:01.491Z,4.13
2018-09-10T02:15:29.556Z,3.90
2018-09-10T02:17:57.642Z,4.27
2018-09-10T02:20:25.857Z,5.00
2018-09-10T02:22:53.879Z,6.53
2018-09-10T02:25:21.980Z,4.40
2018-09-10T02:27:50.120Z,3.60
2018-09-10T02:30:18.174Z,4.10
2018-09-10T02:32:46.318Z,4.23
2018-09-10T02:35:14.356Z,4.50
2018-09-10T02:37:42.436Z,9.57
2018-09-10T02:40:10.584Z,4.60
2018-09-10T02:42:38.689Z,5.10
2018-09-10T02:45:06.804Z,3.73
2018-09-10T02:47:34.957Z,3.90
2018-09-10T02:50:03.159Z,3.67
2018-09-10T02:52:31.249Z,3.40
2018-09-10T02:54:59.360Z,6.80
2018-09-10T02:57:27.444Z,3.67
2018-09-10T02:59:55.594Z,4.77
2018-09-10T03:02:23.695Z,3.43
2018-09-10T03:04:51.826Z,3.23
2018-09-10T03:07:19.911Z,4.13
2018-09-10T03:09:48.008Z,2.93
2018-09-10T03:12:16.073Z,3.90
2018-09-10T03:14:44.178Z,6.20
2018-09-10T03:17:12.355Z,4.00
2018-09-10T03:19:40.526Z,3.07
2018-09-10T03:22:08.582Z,3.30
2018-09-10T03:24:36.725Z,6.27
2018-09-10T03:27:04.767Z,4.93
2018-09-10T03:29:32.908Z,3.37
2018-09-10T03:32:00.990Z,3.93
2018-09-10T03:34:29.080Z,7.67
2018-09-10T03:36:57.163Z,2.60
2018-09-10T03:39:25.254Z,2.90
2018-09-10T03:41:53.305Z,3.23
2018-09-10T03:44:21.438Z,2.90
2018-09-10T03:46:49.517Z,2.90
2018-09-10T03:49:17.579Z,2.77
2018-09-10T03:51:46.645Z,3.33
2018-09-10T03:54:14.704Z,4.80
2018-09-10T03:56:42.776Z,3.10
2018-09-10T03:59:10.877Z,4.20
2018-09-10T04:01:38.961Z,4.60
2018-09-10T04:04:07.079Z,4.93
2018-09-10T04:06:35.184Z,3.20
2018-09-10T04:09:03.321Z,4.00
2018-09-10T04:11:31.371Z,2.90
2018-09-10T04:13:59.505Z,3.40
2018-09-10T04:16:27.563Z,3.75
2018-09-10T04:18:55.715Z,5.17
2018-09-10T04:21:23.805Z,5.13
2018-09-10T04:23:51.861Z,3.95
2018-09-10T04:26:19.973Z,4.73
2018-09-10T04:28:48.035Z,3.17
2018-09-10T04:31:16.203Z,4.70
2018-09-10T04:33:44.337Z,3.30
2018-09-10T04:36:12.476Z,3.53
2018-09-10T04:38:40.569Z,3.50
2018-09-10T04:41:08.692Z,4.20
2018-09-10T04:43:36.723Z,9.73
2018-09-10T04:46:04.784Z,7.13
2018-09-10T04:48:32.844Z,5.23
2018-09-10T04:51:00.992Z,4.37
2018-09-10T04:53:29.052Z,3.93
2018-09-10T04:55:57.214Z,5.77
2018-09-10T04:58:25.341Z,3.07
2018-09-10T05:00:55.773Z,3.50
2018-09-10T05:03:23.848Z,3.90
2018-09-10T05:05:52.012Z,4.30
2018-09-10T05:08:20.117Z,5.03
2018-09-10T05:10:48.279Z,6.97
2018-09-10T05:13:16.367Z,3.30
2018-09-10T05:15:44.448Z,5.25
2018-09-10T05:18:12.537Z,4.03
2018-09-10T05:20:40.595Z,3.15
2018-09-10T05:23:08.865Z,4.08
2018-09-10T05:25:36.913Z,4.40
2018-09-10T05:28:05.204Z,4.40
2018-09-10T05:30:33.291Z,7.70
2018-09-10T05:33:01.351Z,5.17
2018-09-10T05:35:29.471Z,3.92
2018-09-10T05:37:57.599Z,6.85
2018-09-10T05:40:25.649Z,3.45
2018-09-10T05:42:53.740Z,3.92
2018-09-10T05:45:21.792Z,7.72
2018-09-10T05:47:50.605Z,6.12
2018-09-10T05:50:18.676Z,4.80
2018-09-10T05:52:46.793Z,5.20
2018-09-10T05:55:14.851Z,5.08
2018-09-10T05:57:42.935Z,4.80
2018-09-10T06:00:11.232Z,5.22
2018-09-10T06:02:41.278Z,5.45
2018-09-10T06:05:11.412Z,4.55
2018-09-10T06:07:40.785Z,4.97
2018-09-10T06:10:10.889Z,5.03
2018-09-10T06:12:39.877Z,5.35
2018-09-10T06:15:08.061Z,5.17
2018-09-10T06:17:36.224Z,7.30
2018-09-10T06:20:04.335Z,4.40
2018-09-10T06:22:32.427Z,5.83
2018-09-10T06:25:00.483Z,4.20
2018-09-10T06:27:28.692Z,4.35
2018-09-10T06:29:56.869Z,4.97
2018-09-10T06:32:25.856Z,4.80
2018-09-10T06:34:54.006Z,6.08
2018-09-10T06:37:22.162Z,5.90
2018-09-10T06:39:50.223Z,9.20
2018-09-10T06:42:18.265Z,5.58
2018-09-10T06:44:46.307Z,7.37
2018-09-10T06:47:14.380Z,5.50
2018-09-10T06:49:42.494Z,7.55
2018-09-10T06:52:10.609Z,5.62
2018-09-10T06:54:38.783Z,6.35
2018-09-10T06:57:06.839Z,9.33
2018-09-10T06:59:34.896Z,7.17
2018-09-10T07:02:02.988Z,6.75
2018-09-10T07:04:31.057Z,8.88
2018-09-10T07:06:59.119Z,8.70
2018-09-10T07:09:27.216Z,8.53
2018-09-10T07:11:55.273Z,8.10
2018-09-10T07:14:23.346Z,7.65
2018-09-10T07:16:51.466Z,8.53
2018-09-10T07:19:19.533Z,11.35
2018-09-10T07:21:47.625Z,7.83
2018-09-10T07:24:15.702Z,7.95
2018-09-10T07:26:43.789Z,7.60
2018-09-10T07:29:12.312Z,12.25
2018-09-10T07:31:40.409Z,7.80
2018-09-10T07:34:08.479Z,8.95
2018-09-10T07:36:36.527Z,10.05
2018-09-10T07:39:07.199Z,8.38
2018-09-10T07:41:35.297Z,9.45
2018-09-10T07:44:04.071Z,10.75
2018-09-10T07:46:32.088Z,6.75
2018-09-10T07:49:00.244Z,9.43
2018-09-10T07:51:28.191Z,8.83
2018-09-10T07:53:56.313Z,11.25
2018-09-10T07:56:25.171Z,10.50
2018-09-10T07:58:53.676Z,9.40
2018-09-10T08:01:21.790Z,8.85
2018-09-10T08:03:49.967Z,8.58
2018-09-10T08:06:18.124Z,9.88
2018-09-10T08:08:46.191Z,9.53
2018-09-10T08:11:14.532Z,11.78
2018-09-10T08:13:42.656Z,11.30
2018-09-10T08:16:10.724Z,22.45
2018-09-10T08:18:38.887Z,11.35
2018-09-10T08:21:06.968Z,17.50
2018-09-10T08:26:12.889Z,15.03
2018-09-10T08:28:44.420Z,15.50
2018-09-10T08:31:12.787Z,14.10
2018-09-10T08:33:41.976Z,15.53
2018-09-10T08:36:11.225Z,15.75
2018-09-10T08:38:39.377Z,12.37
2018-09-10T08:41:09.226Z,13.88
2018-09-10T08:43:37.319Z,16.00
2018-09-10T08:46:05.391Z,14.55
2018-09-10T08:48:35.017Z,12.20
2018-09-10T08:51:03.767Z,13.22
2018-09-10T08:53:34.276Z,14.40
2018-09-10T08:56:02.760Z,14.35
2018-09-10T08:58:33.116Z,15.00
2018-09-10T09:01:01.416Z,13.95
2018-09-10T09:03:30.859Z,10.10
2018-09-10T09:06:01.794Z,12.00
2018-09-10T09:08:31.936Z,13.05
2018-09-10T09:11:00.022Z,16.85
2018-09-10T09:13:31.810Z,13.95
2018-09-10T09:15:59.934Z,15.43
2018-09-10T09:18:29.440Z,10.65
2018-09-10T09:21:02.556Z,11.70
2018-09-10T09:23:30.718Z,13.40
2018-09-10T09:26:02.946Z,15.95
2018-09-10T09:28:34.741Z,11.95
2018-09-10T09:31:02.855Z,15.65
2018-09-10T09:33:30.954Z,17.00
2018-09-10T09:36:04.460Z,9.70
2018-09-10T09:38:37.710Z,13.60
2018-09-10T09:41:11.215Z,11.63
2018-09-10T09:43:44.821Z,13.65
2018-09-10T09:46:15.110Z,14.47
2018-09-10T09:48:43.199Z,19.45
2018-09-10T09:51:11.308Z,14.03
2018-09-10T09:53:39.377Z,22.32
2018-09-10T09:56:07.537Z,15.65
2018-09-10T09:58:35.612Z,17.10
2018-09-10T10:01:09.152Z,17.07
2018-09-10T10:03:42.755Z,19.52
2018-09-10T10:06:10.943Z,14.25
2018-09-10T10:08:39.050Z,15.35
2018-09-10T10:11:07.256Z,14.23
2018-09-10T10:13:35.291Z,12.65
2018-09-10T10:16:03.444Z,9.80
2018-09-10T10:18:31.556Z,15.18
2018-09-10T10:20:59.611Z,9.93
2018-09-10T10:23:27.696Z,12.53
2018-09-10T10:25:55.837Z,8.65
2018-09-10T10:28:24.044Z,11.08
2018-09-10T10:30:52.100Z,9.45
2018-09-10T10:33:20.184Z,10.75
2018-09-10T10:35:48.245Z,11.50
2018-09-10T10:38:16.361Z,9.75
2018-09-10T10:40:44.452Z,7.22
2018-09-10T10:43:12.568Z,9.03
2018-09-10T10:45:40.709Z,10.68
2018-09-10T10:48:08.795Z,8.68
2018-09-10T10:50:37.159Z,10.10
2018-09-10T10:53:05.247Z,12.20
2018-09-10T10:55:33.302Z,9.80
2018-09-10T10:58:01.515Z,11.97
2018-09-10T11:00:29.736Z,8.75
2018-09-10T11:02:57.910Z,7.10
2018-09-10T11:05:26.119Z,9.45
2018-09-10T11:07:54.531Z,10.40
2018-09-10T11:10:23.139Z,7.50
2018-09-10T11:12:51.268Z,8.85
2018-09-10T11:15:19.328Z,9.33
2018-09-10T11:17:47.419Z,9.23
2018-09-10T11:20:15.492Z,8.30
2018-09-10T11:22:50.065Z,9.03
2018-09-10T11:25:18.159Z,7.70
2018-09-10T11:27:46.344Z,11.10
2018-09-10T11:30:14.352Z,9.60
2018-09-10T11:32:42.403Z,8.93
2018-09-10T11:35:10.484Z,6.85
2018-09-10T11:37:38.561Z,8.80
2018-09-10T11:40:06.635Z,9.33
2018-09-10T11:42:34.701Z,8.63
2018-09-10T11:45:02.791Z,7.60
2018-09-10T11:47:30.849Z,10.93
2018-09-10T11:49:58.900Z,8.80
2018-09-10T11:52:26.973Z,9.65
2018-09-10T11:54:55.024Z,9.23
2018-09-10T11:57:23.099Z,11.68
2018-09-10T11:59:51.161Z,12.28
2018-09-10T12:02:19.213Z,8.18
2018-09-10T12:04:47.250Z,7.25
2018-09-10T12:07:15.294Z,8.60
2018-09-10T12:09:43.349Z,8.03
2018-09-10T12:12:11.466Z,8.55
2018-09-10T12:14:39.608Z,6.37
2018-09-10T12:17:07.723Z,7.10
2018-09-10T12:19:35.795Z,6.00
2018-09-10T12:22:03.856Z,8.63
2018-09-10T12:24:31.914Z,7.45
2018-09-10T12:27:00.028Z,6.22
2018-09-10T12:29:28.179Z,6.60
2018-09-10T12:31:56.209Z,5.62
2018-09-10T12:34:24.303Z,6.22
2018-09-10T12:36:52.363Z,6.62
2018-09-10T12:39:20.508Z,7.72
2018-09-10T12:41:48.560Z,6.35
2018-09-10T12:44:16.627Z,5.75
2018-09-10T12:46:44.731Z,8.65
2018-09-10T12:49:12.779Z,5.42
2018-09-10T12:51:41.400Z,5.28
2018-09-10T12:54:09.635Z,8.23
2018-09-10T12:56:39.494Z,5.87
2018-09-10T12:59:07.563Z,5.17
2018-09-10T13:01:35.612Z,6.62
2018-09-10T13:06:47.088Z,4.70
2018-09-10T13:09:16.202Z,7.17
2018-09-10T13:11:44.918Z,3.55
2018-09-10T13:14:13.929Z,6.37
2018-09-10T13:16:42.008Z,6.00
2018-09-10T13:19:10.050Z,4.83
2018-09-10T13:21:38.099Z,5.20
2018-09-10T13:24:06.203Z,5.33
2018-09-10T13:26:34.327Z,5.60
2018-09-10T13:29:02.698Z,4.00
2018-09-10T13:31:30.753Z,6.25
2018-09-10T13:34:03.347Z,4.00
2018-09-10T13:36:31.436Z,3.60
2018-09-10T13:39:01.398Z,4.65
2018-09-10T13:41:31.009Z,3.85
2018-09-10T13:43:59.626Z,6.80
2018-09-10T13:46:27.680Z,4.90
2018-09-10T13:48:56.068Z,4.78
2018-09-10T13:51:24.307Z,7.22
2018-09-10T13:53:54.790Z,4.58
2018-09-10T13:56:23.090Z,7.20
2018-09-10T13:58:51.175Z,6.50
2018-09-10T14:01:19.275Z,5.37
2018-09-10T14:03:47.378Z,6.90
2018-09-10T14:06:16.064Z,5.22
2018-09-10T14:08:44.124Z,4.20
2018-09-10T14:11:13.279Z,7.30
2018-09-10T14:13:42.259Z,5.33
2018-09-10T14:16:10.403Z,5.12
2018-09-10T14:18:38.490Z,5.10
2018-09-10T14:21:07.286Z,5.08
2018-09-10T14:23:36.392Z,4.40
2018-09-10T14:26:04.732Z,7.90
2018-09-10T14:28:32.949Z,4.33
2018-09-10T14:31:01.044Z,7.53
2018-09-10T14:33:29.213Z,3.77
2018-09-10T14:35:57.371Z,7.37
2018-09-10T14:38:25.544Z,5.25
2018-09-10T14:40:53.715Z,6.97
2018-09-10T14:43:21.831Z,7.15
2018-09-10T14:45:49.940Z,7.08
2018-09-10T14:48:18.015Z,4.62
2018-09-10T14:50:46.113Z,7.05
2018-09-10T14:53:14.193Z,6.30
2018-09-10T14:55:42.293Z,8.55
2018-09-10T14:58:10.352Z,9.18
2018-09-10T15:00:38.437Z,6.85
2018-09-10T15:03:06.524Z,6.20
2018-09-10T15:05:34.572Z,6.97
2018-09-10T15:08:02.646Z,7.12
2018-09-10T15:10:30.712Z,6.90
2018-09-10T15:12:58.812Z,6.80
2018-09-10T15:15:27.423Z,6.60
2018-09-10T15:17:55.640Z,5.87
2018-09-10T15:20:23.720Z,6.40
2018-09-10T15:22:51.827Z,6.87
2018-09-10T15:25:19.938Z,6.78
2018-09-10T15:27:48.014Z,7.75
2018-09-10T15:30:16.077Z,6.17
2018-09-10T15:32:44.237Z,7.62
2018-09-10T15:35:12.288Z,7.35
2018-09-10T15:37:40.372Z,7.70
2018-09-10T15:40:08.462Z,6.58
2018-09-10T15:42:36.566Z,8.58
2018-09-10T15:45:04.661Z,8.35
2018-09-10T15:47:32.758Z,7.53
2018-09-10T15:50:00.820Z,7.33
2018-09-10T15:52:31.904Z,5.83
2018-09-10T15:55:00.024Z,6.95
2018-09-10T15:57:28.105Z,5.12
2018-09-10T15:59:56.241Z,4.40
2018-09-10T16:02:24.326Z,6.03
2018-09-10T16:04:53.106Z,4.12
2018-09-10T16:07:21.221Z,6.45
2018-09-10T16:09:49.236Z,6.17
2018-09-10T16:12:17.284Z,6.67
2018-09-10T16:14:45.368Z,5.17
2018-09-10T16:17:13.482Z,4.53
2018-09-10T16:19:41.567Z,4.87
2018-09-10T16:22:09.665Z,6.00
2018-09-10T16:24:37.761Z,2.60
2018-09-10T16:27:05.805Z,4.87
2018-09-10T16:29:33.897Z,3.62
2018-09-10T16:32:01.978Z,4.65
2018-09-10T16:34:30.052Z,5.75
2018-09-10T16:36:58.108Z,6.65
2018-09-10T16:39:26.197Z,4.35
2018-09-10T16:41:54.256Z,6.62
2018-09-10T16:44:22.348Z,5.65
2018-09-10T16:46:50.404Z,4.35
2018-09-10T16:49:18.459Z,4.12
2018-09-10T16:51:46.528Z,3.85
2018-09-10T16:54:14.622Z,5.50
2018-09-10T16:56:42.705Z,4.72
2018-09-10T16:59:10.883Z,5.05
2018-09-10T17:01:38.935Z,7.67
2018-09-10T17:04:07.012Z,4.25
2018-09-10T17:06:35.084Z,4.03
2018-09-10T17:09:03.342Z,7.80
2018-09-10T17:11:31.402Z,5.15
2018-09-10T17:13:59.475Z,4.92
2018-09-10T17:16:27.579Z,5.97
2018-09-10T17:18:55.660Z,5.53
2018-09-10T17:21:23.729Z,3.80
2018-09-10T17:23:51.817Z,7.87
2018-09-10T17:26:19.860Z,4.58
2018-09-10T17:28:47.931Z,5.37
2018-09-10T17:31:15.995Z,5.60
2018-09-10T17:33:44.111Z,6.05
2018-09-10T17:36:12.187Z,4.37
2018-09-10T17:38:40.544Z,5.50
2018-09-10T17:41:08.666Z,4.67
2018-09-10T17:43:36.716Z,4.35
2018-09-10T17:46:04.832Z,5.78
2018-09-10T17:48:32.882Z,4.42
2018-09-10T17:51:00.958Z,6.50
2018-09-10T17:53:28.995Z,6.08
2018-09-10T17:55:57.092Z,5.80
2018-09-10T17:58:25.171Z,6.80
2018-09-10T18:00:53.238Z,4.73
2018-09-10T18:03:21.299Z,5.10
2018-09-10T18:05:49.512Z,6.95
2018-09-10T18:08:17.589Z,4.70
2018-09-10T18:10:45.665Z,5.83
2018-09-10T18:13:13.727Z,6.85
2018-09-10T18:15:41.840Z,4.50
2018-09-10T18:18:09.970Z,5.53
2018-09-10T18:20:38.081Z,5.92
2018-09-10T18:23:06.120Z,5.45
2018-09-10T18:25:34.173Z,4.65
2018-09-10T18:28:02.219Z,4.53
2018-09-10T18:30:30.398Z,5.47
2018-09-10T18:32:58.488Z,4.47
2018-09-10T18:35:26.580Z,5.60
2018-09-10T18:37:54.795Z,3.90
2018-09-10T18:40:23.000Z,5.87
2018-09-10T18:42:51.063Z,5.72
2018-09-10T18:45:19.432Z,7.83
2018-09-10T18:47:53.824Z,4.87
2018-09-10T18:50:21.914Z,6.90
2018-09-10T18:52:49.980Z,5.12
2018-09-10T18:55:18.144Z,6.00
2018-09-10T18:57:46.215Z,6.03
2018-09-10T19:00:14.384Z,7.03
2018-09-10T19:03:45.301Z,6.27
2018-09-10T19:06:13.450Z,7.25
2018-09-10T19:08:41.537Z,9.60
2018-09-10T19:11:09.607Z,5.87
2018-09-10T19:13:37.644Z,5.77
2018-09-10T19:16:05.708Z,6.70
2018-09-10T19:18:37.777Z,8.13
2018-09-10T19:21:06.051Z,5.55
2018-09-10T19:23:34.753Z,4.60
2018-09-10T19:26:03.129Z,7.40
2018-09-10T19:28:31.209Z,7.73
2018-09-10T19:30:59.312Z,7.62
2018-09-10T19:33:27.420Z,5.17
2018-09-10T19:35:55.508Z,5.20
2018-09-10T19:38:24.772Z,6.37
2018-09-10T19:40:52.907Z,3.50
2018-09-10T19:43:20.971Z,12.88
2018-09-10T19:45:49.067Z,7.60
2018-09-10T19:48:17.144Z,7.53
2018-09-10T19:50:45.247Z,7.97
2018-09-10T19:53:13.292Z,7.43
2018-09-10T19:55:41.472Z,6.27
2018-09-10T19:58:09.625Z,4.27
2018-09-10T20:00:37.672Z,4.40
2018-09-10T20:03:05.730Z,3.40
2018-09-10T20:05:33.760Z,4.87
2018-09-10T20:08:01.867Z,6.37
2018-09-10T20:10:29.889Z,4.67
2018-09-10T20:12:57.945Z,5.27
2018-09-10T20:15:26.101Z,4.37
2018-09-10T20:17:54.190Z,4.07
2018-09-10T20:20:22.337Z,6.37
2018-09-10T20:22:50.383Z,7.50
2018-09-10T20:25:18.471Z,8.73
2018-09-10T20:27:46.550Z,9.03
2018-09-10T20:30:14.735Z,5.97
2018-09-10T20:32:42.844Z,7.90
2018-09-10T20:35:10.929Z,6.00
2018-09-10T20:37:39.016Z,5.77
2018-09-10T20:40:07.079Z,7.10
2018-09-10T20:42:35.151Z,4.97
2018-09-10T20:45:03.241Z,6.87
2018-09-10T20:47:31.372Z,7.40
2018-09-10T20:49:59.471Z,5.70
2018-09-10T20:52:27.545Z,9.20
2018-09-10T20:54:55.572Z,6.60
2018-09-10T20:57:23.667Z,11.23
2018-09-10T20:59:51.769Z,7.07
2018-09-10T21:02:20.095Z,8.53
2018-09-10T21:04:48.185Z,6.17
2018-09-10T21:07:16.301Z,7.10
2018-09-10T21:09:44.353Z,7.10
2018-09-10T21:12:12.425Z,10.27
2018-09-10T21:14:40.468Z,11.23
2018-09-10T21:17:08.537Z,9.78
2018-09-10T21:19:36.580Z,7.07
2018-09-10T21:22:04.648Z,9.07
2018-09-10T21:24:32.695Z,8.97
2018-09-10T21:27:00.758Z,10.20
2018-09-10T21:29:28.830Z,9.35
2018-09-10T21:31:56.904Z,11.33
2018-09-10T21:34:24.997Z,7.70
2018-09-10T21:36:53.083Z,8.80
2018-09-10T21:39:21.165Z,9.80
2018-09-10T21:41:49.215Z,8.80
2018-09-10T21:44:17.311Z,8.63
2018-09-10T21:46:45.377Z,8.43
2018-09-10T21:49:20.078Z,9.73
2018-09-10T21:51:48.137Z,9.00
2018-09-10T21:54:16.207Z,6.93
2018-09-10T21:56:44.268Z,7.67
2018-09-10T21:59:12.347Z,7.63
2018-09-10T22:01:40.410Z,7.63
2018-09-10T22:04:08.521Z,11.00
2018-09-10T22:06:36.759Z,11.73
2018-09-10T22:12:04.054Z,10.40
2018-09-10T22:14:33.256Z,8.70
2018-09-10T22:17:01.728Z,11.40
2018-09-10T22:19:29.831Z,13.43
2018-09-10T22:21:57.967Z,9.97
2018-09-10T22:24:26.153Z,8.13
2018-09-10T22:26:54.316Z,12.40
2018-09-10T22:29:22.404Z,11.27
2018-09-10T22:31:50.441Z,11.23
2018-09-10T22:34:18.513Z,13.20
2018-09-10T22:36:46.562Z,11.43
2018-09-10T22:39:15.403Z,8.97
2018-09-10T22:41:43.876Z,9.70
2018-09-10T22:44:11.959Z,11.33
2018-09-10T22:46:39.993Z,9.83
2018-09-10T22:49:08.659Z,7.90
2018-09-10T22:51:37.280Z,10.30
2018-09-10T22:54:05.340Z,9.70
2018-09-10T22:56:33.420Z,14.97
2018-09-10T22:59:01.483Z,9.90
2018-09-10T23:01:29.519Z,10.43
2018-09-10T23:03:57.584Z,11.07
2018-09-10T23:06:25.637Z,10.03
2018-09-10T23:08:53.680Z,11.97
2018-09-10T23:11:21.721Z,12.07
2018-09-10T23:13:49.829Z,11.63
2018-09-10T23:16:17.864Z,14.20
2018-09-10T23:18:46.149Z,10.93
2018-09-10T23:21:14.183Z,10.23
2018-09-10T23:23:42.223Z,10.40
2018-09-10T23:26:10.280Z,10.60
2018-09-10T23:28:38.395Z,9.33
2018-09-10T23:31:06.933Z,8.33
2018-09-10T23:33:35.935Z,12.33
2018-09-10T23:36:03.994Z,16.03
2018-09-10T23:38:32.096Z,9.87
2018-09-10T23:41:00.177Z,10.23
2018-09-10T23:43:28.271Z,11.97
2018-09-10T23:45:56.473Z,11.27
2018-09-10T23:48:24.579Z,11.20
2018-09-10T23:50:52.637Z,8.30
2018-09-10T23:53:20.705Z,10.03
2018-09-10T23:55:48.774Z,12.03
2018-09-10T23:58:16.832Z,12.70
